aviador You're here:

WBKT Decoded Metar

KUDAT in MALAYSIA
Report Time2017-03-23 02:00:00
UTC Time2017-03-23 02:15:30
Flight Rules vfr VFR
Wind130° at 07 kt
W.Rank130° ranks 15
Current wind is above 130° avg. (4.1)
Visibility9999 m
Phenomena:N/A
Clouds:Few 015 Hf
Scattered 140 Hf
Broken 270 Hf
Expected CloudBase > 2,000 ft AGL from Temp-Dew spread
Ceiling27,000 ft
Temp29°C (ISA +14)
Dew Point24°C (74% RH)
Heat Index33.5°C
QNH1013 hPa
Density Alt2,018 ft
Elevation16 ft
Report Wrong Elevation
Raw Report
METAR WBKT 230200Z 13007KT 050V190 9999 FEW015 SCT140 BKN270 29/24 Q1013=

Extra information for WBKT:More info

Metar Taf Metar & Taf Last 4 Metars F.Rules Stats Wind Profile Meteogram Temp Stats Airport Information Weather charts Add Link Nearby VenuesMetar ALERT Operation Metar Decoded Social comments